Time;durP1;ratioP1;P1;durP2;ratioP2;P2;SDS_P1;SDS_P2;PMS_P1;PMS_P2;Temp;Humidity;BMP_temperature;BMP_pressure;BME280_temperature;BME280_humidity;BME280_pressure;Samples;Min_cycle;Max_cycle;Signal;HPM_P1;HPM_P2
2024/01/14 00:00:07;;;;;;;10.85;2.38;;;3.60;99.90;;;;;;5070566;28;20037;-35
2024/01/14 00:02:33;;;;;;;7.60;2.30;;;3.70;99.90;;;;;;5082881;28;20040;-35
2024/01/14 00:04:59;;;;;;;11.68;2.25;;;3.70;99.90;;;;;;5081246;28;20044;-35
2024/01/14 00:07:25;;;;;;;8.45;3.28;;;3.80;99.90;;;;;;5081415;28;20104;-35
2024/01/14 00:09:51;;;;;;;7.95;1.92;;;3.80;99.90;;;;;;5071888;28;20040;-35
2024/01/14 00:12:16;;;;;;;11.25;3.58;;;3.80;99.90;;;;;;5067352;28;20048;-35
2024/01/14 00:14:42;;;;;;;9.15;2.90;;;3.80;99.90;;;;;;5075777;28;20086;-35
2024/01/14 00:17:08;;;;;;;9.65;2.97;;;3.80;99.90;;;;;;5074198;28;20118;-35
2024/01/14 00:19:34;;;;;;;11.80;2.03;;;3.80;99.90;;;;;;5083834;28;20044;-35
2024/01/14 00:22:00;;;;;;;8.52;2.30;;;3.80;99.90;;;;;;5082673;28;20040;-35
2024/01/14 00:24:25;;;;;;;11.43;2.38;;;3.80;99.90;;;;;;5076628;28;20427;-35
2024/01/14 00:26:51;;;;;;;7.22;1.60;;;3.70;99.90;;;;;;5065695;28;20040;-35
2024/01/14 00:29:17;;;;;;;10.90;3.20;;;3.70;99.90;;;;;;5091599;28;20560;-35
2024/01/14 00:31:42;;;;;;;11.80;2.88;;;3.70;99.90;;;;;;5071145;28;20051;-35
2024/01/14 00:34:08;;;;;;;10.07;2.15;;;3.70;99.90;;;;;;5073295;28;20044;-35
2024/01/14 00:36:40;;;;;;;7.60;2.10;;;3.70;99.90;;;;;;5086432;28;20410;-35
2024/01/14 00:39:06;;;;;;;9.40;2.63;;;3.70;99.90;;;;;;5084945;28;20123;-34
2024/01/14 00:41:33;;;;;;;5.75;2.33;;;3.70;99.90;;;;;;5086722;28;20104;-35
2024/01/14 00:44:00;;;;;;;9.45;2.47;;;3.70;99.90;;;;;;5081969;28;20032;-35
2024/01/14 00:46:26;;;;;;;7.05;3.42;;;3.60;99.90;;;;;;5084875;28;20044;-36
2024/01/14 00:48:52;;;;;;;8.18;2.17;;;3.60;99.90;;;;;;5084371;28;20044;-35
2024/01/14 00:51:17;;;;;;;8.95;2.50;;;3.60;99.90;;;;;;5091685;28;20064;-35
2024/01/14 00:53:43;;;;;;;13.95;3.42;;;3.60;99.90;;;;;;5080757;28;20666;-35
2024/01/14 00:56:09;;;;;;;7.30;2.45;;;3.60;99.90;;;;;;5084830;28;20044;-34
2024/01/14 00:58:35;;;;;;;8.68;2.35;;;3.60;99.90;;;;;;5085670;28;20043;-35
2024/01/14 01:01:00;;;;;;;11.63;2.17;;;3.70;99.90;;;;;;5079880;28;20516;-36
2024/01/14 01:03:26;;;;;;;15.38;2.33;;;3.70;99.90;;;;;;5095388;28;20457;-35
2024/01/14 01:05:54;;;;;;;8.73;2.03;;;3.60;99.90;;;;;;5070491;28;20120;-35
2024/01/14 01:08:19;;;;;;;7.88;1.70;;;3.70;99.90;;;;;;5095858;28;20063;-35
2024/01/14 01:10:45;;;;;;;8.55;2.40;;;3.70;99.90;;;;;;5087785;28;20032;-36
2024/01/14 01:13:11;;;;;;;8.32;1.60;;;3.70;99.90;;;;;;5088993;28;20154;-35
2024/01/14 01:15:37;;;;;;;9.10;1.90;;;3.80;99.90;;;;;;5090787;28;20072;-35
2024/01/14 01:18:03;;;;;;;6.93;1.63;;;3.80;99.90;;;;;;5071365;28;20463;-35
2024/01/14 01:20:29;;;;;;;9.10;1.95;;;3.80;99.90;;;;;;5094868;28;20173;-36
2024/01/14 01:22:55;;;;;;;9.90;1.95;;;3.80;99.90;;;;;;5064523;28;20128;-35
2024/01/14 01:25:21;;;;;;;8.85;2.33;;;3.90;99.90;;;;;;5084524;28;20115;-35
2024/01/14 01:27:47;;;;;;;8.55;1.90;;;3.90;99.90;;;;;;5082112;28;20040;-35
2024/01/14 01:30:13;;;;;;;8.10;1.52;;;3.90;99.90;;;;;;5087034;28;20043;-35
2024/01/14 01:32:39;;;;;;;8.05;1.60;;;3.90;99.90;;;;;;5085085;28;20055;-35
2024/01/14 01:35:05;;;;;;;7.03;1.92;;;4.00;99.90;;;;;;5087704;28;20118;-34
2024/01/14 01:37:30;;;;;;;12.05;2.00;;;4.00;99.90;;;;;;5090979;28;20170;-34
2024/01/14 01:39:56;;;;;;;6.50;1.85;;;4.10;99.90;;;;;;5080065;28;20119;-35
2024/01/14 01:42:22;;;;;;;10.80;1.80;;;4.10;99.90;;;;;;5091320;28;20040;-35
2024/01/14 01:44:48;;;;;;;7.22;1.25;;;4.10;99.90;;;;;;5088395;28;20163;-36
2024/01/14 01:47:15;;;;;;;6.45;1.55;;;4.10;99.90;;;;;;5092139;28;20043;-34
2024/01/14 01:49:42;;;;;;;8.13;1.65;;;4.10;99.90;;;;;;5084778;28;20551;-35
2024/01/14 01:52:09;;;;;;;7.97;2.00;;;4.10;99.90;;;;;;5073718;28;20048;-36
2024/01/14 01:54:37;;;;;;;8.00;1.77;;;4.10;99.90;;;;;;5086461;28;20470;-35
2024/01/14 01:57:03;;;;;;;7.00;1.67;;;4.10;99.90;;;;;;5086058;28;20032;-36
2024/01/14 01:59:31;;;;;;;8.27;1.77;;;4.10;99.90;;;;;;5091573;28;20036;-35
2024/01/14 02:01:59;;;;;;;12.00;1.92;;;4.00;99.90;;;;;;5088227;28;20052;-34
2024/01/14 02:04:27;;;;;;;6.10;1.60;;;4.00;99.90;;;;;;5074405;28;20438;-35
2024/01/14 02:06:53;;;;;;;8.40;1.50;;;4.00;99.90;;;;;;5088872;28;20039;-35
2024/01/14 02:09:19;;;;;;;8.50;1.95;;;4.00;99.90;;;;;;5091303;28;20043;-35
2024/01/14 02:11:45;;;;;;;6.97;1.90;;;4.00;99.90;;;;;;5084800;28;20415;-35
2024/01/14 02:14:10;;;;;;;9.45;1.60;;;4.00;99.90;;;;;;5067360;28;20040;-35
2024/01/14 02:16:36;;;;;;;7.38;1.85;;;4.00;99.90;;;;;;5091036;28;20064;-34
2024/01/14 02:19:02;;;;;;;7.70;1.98;;;4.00;99.90;;;;;;5088219;28;20047;-37
2024/01/14 02:21:34;;;;;;;10.40;2.30;;;4.00;99.90;;;;;;5087213;28;20510;-35
2024/01/14 02:24:29;;;;;;;7.50;2.00;;;4.00;99.90;;;;;;5077748;28;20059;-35
2024/01/14 02:26:55;;;;;;;5.60;1.30;;;4.00;99.90;;;;;;5071345;28;20107;-35
2024/01/14 02:29:21;;;;;;;7.57;2.10;;;4.00;99.90;;;;;;5093807;28;20499;-35
2024/01/14 02:31:47;;;;;;;10.57;1.80;;;3.90;99.90;;;;;;5082475;28;20044;-35
2024/01/14 02:34:13;;;;;;;6.90;2.10;;;3.90;99.90;;;;;;5075732;28;20495;-34
2024/01/14 02:36:39;;;;;;;9.20;1.90;;;3.90;99.90;;;;;;5084523;28;20593;-35
2024/01/14 02:39:05;;;;;;;12.75;1.80;;;3.90;99.90;;;;;;5065370;28;20051;-35
2024/01/14 02:41:32;;;;;;;7.70;1.88;;;3.90;99.90;;;;;;5086843;28;20407;-34
2024/01/14 02:43:57;;;;;;;9.38;1.92;;;3.90;99.90;;;;;;5067473;28;20576;-35
2024/01/14 02:46:24;;;;;;;9.10;1.90;;;3.90;99.90;;;;;;5093509;28;20090;-35
2024/01/14 02:48:49;;;;;;;10.60;2.17;;;3.90;99.90;;;;;;5065257;28;20051;-35
2024/01/14 02:51:15;;;;;;;7.32;1.80;;;3.80;99.90;;;;;;5078539;28;20040;-35
2024/01/14 02:53:42;;;;;;;9.63;2.22;;;3.90;99.90;;;;;;5085436;28;20040;-35
2024/01/14 02:56:10;;;;;;;14.00;2.42;;;3.90;99.90;;;;;;5079936;28;20032;-35
2024/01/14 02:58:36;;;;;;;9.32;1.73;;;3.90;99.90;;;;;;5085415;28;20519;-36
2024/01/14 03:01:02;;;;;;;8.52;2.28;;;3.90;99.90;;;;;;5076257;28;20462;-34
2024/01/14 03:03:28;;;;;;;9.30;2.00;;;3.90;99.90;;;;;;5089955;28;20043;-35
2024/01/14 03:05:54;;;;;;;10.55;2.40;;;3.90;99.90;;;;;;5091282;28;20486;-34
2024/01/14 03:08:20;;;;;;;11.05;2.38;;;3.90;99.90;;;;;;5077288;28;20046;-36
2024/01/14 03:10:45;;;;;;;9.68;2.20;;;3.90;99.90;;;;;;5089409;28;20048;-35
2024/01/14 03:13:14;;;;;;;10.20;2.03;;;3.80;99.90;;;;;;5083320;28;20040;-35
2024/01/14 03:15:40;;;;;;;10.95;2.00;;;3.80;99.90;;;;;;5084220;28;20513;-35
2024/01/14 03:18:06;;;;;;;8.70;1.90;;;3.80;99.90;;;;;;5089114;28;20048;-35
2024/01/14 03:20:32;;;;;;;6.43;1.48;;;3.80;99.90;;;;;;5087143;28;20094;-35
2024/01/14 03:22:58;;;;;;;10.43;1.67;;;3.70;99.90;;;;;;5089064;28;20048;-35
2024/01/14 03:25:24;;;;;;;9.43;2.33;;;3.60;99.90;;;;;;5082597;28;20045;-35
2024/01/14 03:27:49;;;;;;;7.90;2.83;;;3.60;99.90;;;;;;5087671;28;20043;-35
2024/01/14 03:30:16;;;;;;;8.00;2.10;;;3.60;99.90;;;;;;5088501;28;20415;-34
2024/01/14 03:32:42;;;;;;;8.88;2.17;;;3.50;99.90;;;;;;5087797;28;20116;-35
2024/01/14 03:35:09;;;;;;;12.57;2.15;;;3.40;99.90;;;;;;5071576;28;20530;-34
2024/01/14 03:37:34;;;;;;;11.82;1.92;;;3.40;99.90;;;;;;5087357;28;20098;-34
2024/01/14 03:40:01;;;;;;;7.80;1.80;;;3.40;99.90;;;;;;5086554;28;20064;-35
2024/01/14 03:42:27;;;;;;;12.05;2.28;;;3.40;99.90;;;;;;5065430;28;20107;-35
2024/01/14 03:44:52;;;;;;;8.82;1.77;;;3.40;99.90;;;;;;5066608;28;20826;-36
2024/01/14 03:47:18;;;;;;;6.18;1.70;;;3.30;99.90;;;;;;5080468;28;20040;-34
2024/01/14 03:49:44;;;;;;;8.88;2.05;;;3.30;99.90;;;;;;5071180;28;20491;-35
2024/01/14 03:52:09;;;;;;;7.05;2.10;;;3.30;99.90;;;;;;5090602;28;20055;-35
2024/01/14 03:54:35;;;;;;;14.38;2.35;;;3.30;99.90;;;;;;5072590;28;20036;-35
2024/01/14 03:57:01;;;;;;;6.68;1.83;;;3.30;99.90;;;;;;5085364;28;20063;-35
2024/01/14 03:59:27;;;;;;;8.73;2.20;;;3.30;99.90;;;;;;5059457;28;20513;-35
2024/01/14 04:01:52;;;;;;;13.77;2.40;;;3.20;99.90;;;;;;5074863;28;20036;-35
2024/01/14 04:04:18;;;;;;;8.48;2.42;;;3.30;99.90;;;;;;5084785;28;20067;-34
2024/01/14 04:06:44;;;;;;;15.10;2.60;;;3.20;99.90;;;;;;5079763;28;20039;-34
2024/01/14 04:09:10;;;;;;;6.93;1.98;;;3.20;99.90;;;;;;5089813;28;20032;-35
2024/01/14 04:11:36;;;;;;;8.35;2.38;;;3.20;99.90;;;;;;5083394;28;20063;-34
2024/01/14 04:14:02;;;;;;;9.77;1.92;;;3.20;99.90;;;;;;5081951;28;20033;-36
2024/01/14 04:16:38;;;;;;;10.02;1.98;;;3.20;99.90;;;;;;5070349;28;20039;-34
2024/01/14 04:19:05;;;;;;;7.53;1.92;;;3.20;99.90;;;;;;5076922;28;20036;-35
2024/01/14 04:21:31;;;;;;;11.57;1.95;;;3.20;99.90;;;;;;5086468;28;20537;-35
2024/01/14 04:23:58;;;;;;;9.63;1.75;;;3.20;99.90;;;;;;5085149;28;20072;-35
2024/01/14 04:26:24;;;;;;;8.43;2.03;;;3.20;99.90;;;;;;5089909;28;20043;-34
2024/01/14 04:28:50;;;;;;;8.13;2.00;;;3.20;99.90;;;;;;5082928;28;20036;-34
2024/01/14 04:31:16;;;;;;;11.68;2.05;;;3.20;99.90;;;;;;5082724;28;20560;-34
2024/01/14 04:33:42;;;;;;;8.35;2.38;;;3.20;99.90;;;;;;5083914;28;20059;-35
2024/01/14 04:36:08;;;;;;;12.80;1.88;;;3.20;99.90;;;;;;5083502;28;20032;-35
2024/01/14 04:38:34;;;;;;;12.35;1.90;;;3.20;99.90;;;;;;5070888;28;20044;-35
2024/01/14 04:41:00;;;;;;;7.43;1.73;;;3.20;99.90;;;;;;5085474;28;20476;-36
2024/01/14 04:43:26;;;;;;;13.48;2.45;;;3.20;99.90;;;;;;5087597;28;20491;-35
2024/01/14 04:45:51;;;;;;;8.23;1.77;;;3.20;99.90;;;;;;5082823;28;20116;-35
2024/01/14 04:48:17;;;;;;;8.80;1.80;;;3.10;99.90;;;;;;5083167;28;20040;-41
2024/01/14 04:50:43;;;;;;;8.48;2.13;;;3.20;99.90;;;;;;5084651;28;20036;-40
2024/01/14 04:53:09;;;;;;;6.80;1.95;;;3.20;99.90;;;;;;5076499;28;20053;-39
2024/01/14 04:55:34;;;;;;;6.82;1.30;;;3.20;99.90;;;;;;5090059;28;20504;-37
2024/01/14 04:58:00;;;;;;;7.20;1.38;;;3.20;99.90;;;;;;5085888;28;20036;-39
2024/01/14 05:00:26;;;;;;;8.73;1.70;;;3.20;99.90;;;;;;5084681;28;20032;-36
2024/01/14 05:02:52;;;;;;;7.22;2.15;;;3.20;99.90;;;;;;5062135;28;20048;-36
2024/01/14 05:05:17;;;;;;;7.97;2.28;;;3.20;99.90;;;;;;5084629;28;20078;-36
2024/01/14 05:07:44;;;;;;;9.75;1.70;;;3.30;99.90;;;;;;5088432;28;20043;-36
2024/01/14 05:10:09;;;;;;;11.75;2.35;;;3.30;99.90;;;;;;5086115;28;20504;-36
2024/01/14 05:12:36;;;;;;;9.73;2.38;;;3.40;99.90;;;;;;5073816;28;20044;-37
2024/01/14 05:15:01;;;;;;;16.35;4.95;;;3.40;99.90;;;;;;5084009;28;20032;-36
2024/01/14 05:17:27;;;;;;;7.72;1.95;;;3.40;99.90;;;;;;5070529;28;20043;-36
2024/01/14 05:19:53;;;;;;;7.13;1.60;;;3.40;99.90;;;;;;5080457;28;20051;-41
2024/01/14 05:22:19;;;;;;;37.95;16.83;;;3.40;99.90;;;;;;5079773;28;20040;-36
2024/01/14 05:24:45;;;;;;;8.65;2.40;;;3.50;99.90;;;;;;5079640;28;20036;-40
2024/01/14 05:27:12;;;;;;;12.82;3.35;;;3.50;99.90;;;;;;5083971;28;20111;-40
2024/01/14 05:29:41;;;;;;;9.18;2.33;;;3.40;99.90;;;;;;5047701;28;20075;-41
2024/01/14 05:32:10;;;;;;;7.70;1.75;;;3.40;99.90;;;;;;5078082;28;20060;-43
2024/01/14 05:34:36;;;;;;;7.05;1.98;;;3.40;99.90;;;;;;5070128;28;20518;-39
2024/01/14 05:37:01;;;;;;;9.50;2.13;;;3.40;99.90;;;;;;5066950;28;20075;-39
2024/01/14 05:39:27;;;;;;;6.35;1.77;;;3.40;99.90;;;;;;5076138;28;20124;-42
2024/01/14 05:41:53;;;;;;;8.13;2.30;;;3.40;99.90;;;;;;5081163;28;20032;-41
2024/01/14 05:44:19;;;;;;;7.05;2.63;;;3.40;99.90;;;;;;5072877;28;20377;-41
2024/01/14 05:46:45;;;;;;;10.88;2.00;;;3.30;99.90;;;;;;5069034;28;20033;-43
2024/01/14 05:49:11;;;;;;;5.85;2.20;;;3.30;99.90;;;;;;5088850;28;20048;-35
2024/01/14 05:51:36;;;;;;;11.05;2.80;;;3.20;99.90;;;;;;5075202;28;20075;-38
2024/01/14 05:54:03;;;;;;;7.07;2.95;;;3.20;99.90;;;;;;5085491;28;20411;-36
2024/01/14 05:56:30;;;;;;;10.23;3.63;;;3.20;99.90;;;;;;5087971;28;20036;-38
2024/01/14 05:58:56;;;;;;;8.45;2.33;;;3.10;99.90;;;;;;5083769;28;20396;-36
2024/01/14 06:01:22;;;;;;;8.02;1.33;;;3.10;99.90;;;;;;5092167;28;20036;-37
2024/01/14 06:03:47;;;;;;;9.50;1.58;;;3.10;99.90;;;;;;5082435;28;20037;-37
2024/01/14 06:06:13;;;;;;;8.20;1.33;;;3.10;99.90;;;;;;5094297;28;20044;-38
2024/01/14 06:08:41;;;;;;;8.23;1.75;;;3.10;99.90;;;;;;5070197;28;20032;-39
2024/01/14 06:11:07;;;;;;;5.63;1.40;;;3.20;99.90;;;;;;5084609;28;20039;-40
2024/01/14 06:13:33;;;;;;;5.38;1.60;;;3.20;99.90;;;;;;5087205;28;20488;-41
2024/01/14 06:15:59;;;;;;;7.85;1.52;;;3.20;99.90;;;;;;5087288;28;20040;-35
2024/01/14 06:18:25;;;;;;;9.68;2.13;;;3.20;99.90;;;;;;5088648;28;20111;-34
2024/01/14 06:20:51;;;;;;;6.63;2.03;;;3.30;99.90;;;;;;5090285;28;20091;-34
2024/01/14 06:23:17;;;;;;;10.07;1.77;;;3.30;99.90;;;;;;5087393;28;20063;-38
2024/01/14 06:25:42;;;;;;;5.78;2.00;;;3.30;99.90;;;;;;5084878;28;20065;-34
2024/01/14 06:28:08;;;;;;;8.63;1.90;;;3.30;99.90;;;;;;5089817;28;20044;-35
2024/01/14 06:30:34;;;;;;;8.50;3.15;;;3.40;99.90;;;;;;5086737;28;20617;-34
2024/01/14 06:33:00;;;;;;;11.38;2.10;;;3.40;99.90;;;;;;5081761;28;20098;-34
2024/01/14 06:35:26;;;;;;;13.30;1.85;;;3.40;99.90;;;;;;5049226;28;20123;-35
2024/01/14 06:37:51;;;;;;;8.57;2.20;;;3.30;99.90;;;;;;5081980;28;20041;-36
2024/01/14 06:40:17;;;;;;;6.35;1.77;;;3.40;99.90;;;;;;5083906;28;20177;-35
2024/01/14 06:42:43;;;;;;;8.55;1.70;;;3.40;99.90;;;;;;5083003;28;20036;-34
2024/01/14 06:45:12;;;;;;;7.15;1.77;;;3.50;99.90;;;;;;5084277;28;20108;-35
2024/01/14 06:47:38;;;;;;;12.48;1.98;;;3.40;99.90;;;;;;5077048;28;20078;-34
2024/01/14 06:50:05;;;;;;;12.07;1.90;;;3.40;99.90;;;;;;5086122;28;20066;-33
2024/01/14 06:52:30;;;;;;;9.73;1.55;;;3.40;99.90;;;;;;5062626;28;20116;-33
2024/01/14 06:54:56;;;;;;;7.68;1.60;;;3.40;99.90;;;;;;5087868;28;20162;-32
2024/01/14 06:57:22;;;;;;;7.30;1.88;;;3.50;99.90;;;;;;5071873;28;20032;-34
2024/01/14 06:59:48;;;;;;;6.22;1.48;;;3.40;99.90;;;;;;5075630;28;20040;-36
2024/01/14 07:02:14;;;;;;;10.18;1.90;;;3.40;99.90;;;;;;5059015;28;20044;-34
2024/01/14 07:04:40;;;;;;;6.10;1.95;;;3.40;99.90;;;;;;5084958;28;20044;-34
2024/01/14 07:07:08;;;;;;;9.32;2.03;;;3.40;99.90;;;;;;5078538;28;20043;-33
2024/01/14 07:09:34;;;;;;;9.15;1.58;;;3.40;99.90;;;;;;5083265;28;20491;-35
2024/01/14 07:12:03;;;;;;;7.80;1.83;;;3.40;99.90;;;;;;5084377;28;20441;-34
2024/01/14 07:14:29;;;;;;;10.23;1.67;;;3.40;99.90;;;;;;5078942;28;20029;-33
2024/01/14 07:16:55;;;;;;;8.15;1.42;;;3.40;99.90;;;;;;5058220;28;20549;-33
2024/01/14 07:19:20;;;;;;;7.55;1.50;;;3.40;99.90;;;;;;5082347;28;20133;-34
2024/01/14 07:21:46;;;;;;;5.65;1.52;;;3.40;99.90;;;;;;5077810;28;20396;-33
2024/01/14 07:24:12;;;;;;;6.78;1.52;;;3.40;99.90;;;;;;5078249;28;20517;-35
2024/01/14 07:26:38;;;;;;;4.80;1.77;;;3.40;99.90;;;;;;5066891;28;20048;-34
2024/01/14 07:29:04;;;;;;;6.63;1.58;;;3.40;99.90;;;;;;5072143;28;20090;-36
2024/01/14 07:31:31;;;;;;;8.63;2.88;;;3.40;99.90;;;;;;5081598;28;20091;-37
2024/01/14 07:33:57;;;;;;;10.10;2.88;;;3.40;99.90;;;;;;5082949;28;20464;-34
2024/01/14 07:36:23;;;;;;;7.75;2.33;;;3.40;99.90;;;;;;5074330;28;20157;-33
2024/01/14 07:38:54;;;;;;;8.07;2.17;;;3.40;99.90;;;;;;5084765;28;20071;-34
2024/01/14 07:41:20;;;;;;;7.30;1.58;;;3.40;99.90;;;;;;5078490;28;20032;-34
2024/01/14 07:43:45;;;;;;;12.68;1.75;;;3.50;99.90;;;;;;5071340;28;20506;-35
2024/01/14 07:46:12;;;;;;;13.23;5.47;;;3.50;99.90;;;;;;5052454;28;20040;-35
2024/01/14 07:48:38;;;;;;;6.15;2.15;;;3.50;99.90;;;;;;5059413;28;20469;-34
2024/01/14 07:51:04;;;;;;;11.40;4.80;;;3.50;99.90;;;;;;5070312;28;20128;-32
2024/01/14 07:53:30;;;;;;;5.13;2.58;;;3.50;99.90;;;;;;5044922;28;20080;-32
2024/01/14 07:55:55;;;;;;;7.60;3.70;;;3.50;99.90;;;;;;5064778;28;20347;-34
2024/01/14 07:58:21;;;;;;;10.90;2.85;;;3.50;99.90;;;;;;5068333;28;20043;-34
2024/01/14 08:00:47;;;;;;;14.13;7.22;;;3.50;99.90;;;;;;5062612;28;20511;-33
2024/01/14 08:03:14;;;;;;;16.60;7.30;;;3.50;99.90;;;;;;5045857;28;20045;-33
2024/01/14 08:05:39;;;;;;;12.05;5.90;;;3.60;99.90;;;;;;5069731;28;20033;-33
2024/01/14 08:08:05;;;;;;;8.80;4.00;;;3.60;99.90;;;;;;5068929;28;20101;-35
2024/01/14 08:10:32;;;;;;;9.43;4.75;;;3.60;99.90;;;;;;5066114;28;20052;-35
2024/01/14 08:12:58;;;;;;;11.50;5.88;;;3.60;99.90;;;;;;5079203;28;20508;-33
2024/01/14 08:15:24;;;;;;;10.88;3.13;;;3.60;99.90;;;;;;5055119;28;20047;-34
2024/01/14 08:17:50;;;;;;;9.63;4.45;;;3.70;99.90;;;;;;5062819;28;20395;-35
2024/01/14 08:20:16;;;;;;;10.55;6.15;;;3.70;99.90;;;;;;5081711;28;20040;-34
2024/01/14 08:22:42;;;;;;;6.53;3.58;;;3.70;99.90;;;;;;5078655;28;20040;-34
2024/01/14 08:25:09;;;;;;;7.40;3.22;;;3.70;99.90;;;;;;5083589;28;20119;-34
2024/01/14 08:27:35;;;;;;;13.27;5.22;;;3.70;99.90;;;;;;5068998;28;20083;-33
2024/01/14 08:30:01;;;;;;;7.38;4.13;;;3.70;99.90;;;;;;5080336;28;20086;-34
2024/01/14 08:32:27;;;;;;;11.68;3.15;;;3.80;99.90;;;;;;5101147;28;20044;-37
2024/01/14 08:34:53;;;;;;;9.05;3.83;;;3.80;99.90;;;;;;5092198;28;20040;-33
2024/01/14 08:37:19;;;;;;;9.43;3.60;;;3.80;99.90;;;;;;5074908;28;20377;-36
2024/01/14 08:39:44;;;;;;;11.27;3.55;;;3.80;99.90;;;;;;5094223;28;20044;-33
2024/01/14 08:42:10;;;;;;;19.48;11.55;;;3.80;99.90;;;;;;5093002;28;20051;-33
2024/01/14 08:44:36;;;;;;;8.65;3.58;;;3.90;99.90;;;;;;5094322;28;20611;-34
2024/01/14 08:47:02;;;;;;;11.38;6.97;;;3.90;99.90;;;;;;5093854;28;20055;-34
2024/01/14 08:49:29;;;;;;;6.88;3.38;;;3.90;99.90;;;;;;5092056;28;20043;-34
2024/01/14 08:51:56;;;;;;;16.05;6.63;;;4.00;99.90;;;;;;5093437;28;20402;-35
2024/01/14 08:54:22;;;;;;;15.48;7.65;;;4.00;99.90;;;;;;5106784;28;20035;-34
2024/01/14 08:56:48;;;;;;;9.10;3.95;;;4.00;99.90;;;;;;5086808;28;20097;-33
2024/01/14 08:59:14;;;;;;;12.50;7.35;;;4.00;99.90;;;;;;5097210;28;20115;-33
2024/01/14 09:01:40;;;;;;;9.43;3.92;;;4.00;99.90;;;;;;5093213;28;20040;-36
2024/01/14 09:04:06;;;;;;;8.52;5.90;;;4.00;99.90;;;;;;5101563;28;20067;-34
2024/01/14 09:06:32;;;;;;;9.90;4.65;;;4.00;99.90;;;;;;5093434;28;20483;-34
2024/01/14 09:08:58;;;;;;;14.88;8.02;;;4.00;99.90;;;;;;5097689;28;20043;-35
2024/01/14 09:11:23;;;;;;;13.27;5.78;;;4.00;99.90;;;;;;5083093;28;20137;-33
2024/01/14 09:13:49;;;;;;;16.75;7.20;;;4.10;99.90;;;;;;5079723;28;20136;-34
2024/01/14 09:16:16;;;;;;;12.77;5.47;;;4.10;99.90;;;;;;5085121;28;20491;-33
2024/01/14 09:18:42;;;;;;;13.55;7.80;;;4.00;99.90;;;;;;5081669;28;20071;-34
2024/01/14 09:21:08;;;;;;;14.85;7.85;;;4.10;99.90;;;;;;5098548;28;20078;-33
2024/01/14 09:23:34;;;;;;;31.00;16.33;;;4.10;99.90;;;;;;5098895;28;20044;-34
2024/01/14 09:25:59;;;;;;;21.67;12.82;;;4.00;99.90;;;;;;5103724;28;20032;-35
2024/01/14 09:28:25;;;;;;;11.02;7.60;;;4.10;99.90;;;;;;5082249;28;20071;-33
2024/01/14 09:30:51;;;;;;;10.35;5.43;;;4.10;99.90;;;;;;5070218;28;20101;-35
2024/01/14 09:33:18;;;;;;;13.63;9.38;;;4.20;99.90;;;;;;5095425;28;20525;-34
2024/01/14 09:35:44;;;;;;;16.02;7.95;;;4.20;99.90;;;;;;5106841;28;20483;-35
2024/01/14 09:38:10;;;;;;;11.20;6.05;;;4.20;99.90;;;;;;5108961;28;20105;-36
2024/01/14 09:40:40;;;;;;;9.85;4.45;;;4.20;99.90;;;;;;5098883;28;20036;-33
2024/01/14 09:43:09;;;;;;;6.75;2.88;;;4.20;99.90;;;;;;5100898;28;20101;-34
2024/01/14 09:45:35;;;;;;;10.98;6.65;;;4.20;99.90;;;;;;5105219;28;20044;-34
2024/01/14 09:48:02;;;;;;;8.40;4.70;;;4.20;99.90;;;;;;5097181;28;20098;-35
2024/01/14 09:50:31;;;;;;;6.18;3.58;;;4.20;99.90;;;;;;5098171;28;20036;-36
2024/01/14 09:52:58;;;;;;;9.10;5.55;;;4.20;99.90;;;;;;5096699;28;20124;-34
2024/01/14 09:55:27;;;;;;;7.85;4.90;;;4.30;99.90;;;;;;5100623;28;20483;-34
2024/01/14 09:57:54;;;;;;;9.88;5.20;;;4.30;99.90;;;;;;5102302;28;20032;-33
2024/01/14 10:00:22;;;;;;;11.95;7.32;;;4.30;99.90;;;;;;5077180;28;20394;-35
2024/01/14 10:02:48;;;;;;;11.98;7.18;;;4.30;99.90;;;;;;5103384;28;20047;-34
2024/01/14 10:05:17;;;;;;;14.20;9.73;;;4.30;99.90;;;;;;5092011;28;20071;-33
2024/01/14 10:07:46;;;;;;;13.98;8.52;;;4.20;99.90;;;;;;5111197;28;20039;-36
2024/01/14 10:10:11;;;;;;;13.50;8.48;;;4.20;99.90;;;;;;5095664;28;20044;-34
2024/01/14 10:12:38;;;;;;;16.75;10.50;;;4.30;99.90;;;;;;5094196;28;20094;-34
2024/01/14 10:15:04;;;;;;;18.20;10.65;;;4.20;99.90;;;;;;5101702;28;20119;-36
2024/01/14 10:17:31;;;;;;;18.73;10.60;;;4.10;99.90;;;;;;5095777;28;20036;-34
2024/01/14 10:20:00;;;;;;;20.65;11.95;;;4.10;99.90;;;;;;5100272;28;20541;-35
2024/01/14 10:22:29;;;;;;;22.23;13.57;;;4.20;99.90;;;;;;5092923;28;20055;-35
2024/01/14 10:24:56;;;;;;;22.95;13.68;;;4.10;99.90;;;;;;5095306;28;20057;-34
2024/01/14 10:27:23;;;;;;;27.90;17.60;;;4.20;99.90;;;;;;5099621;28;20036;-35
2024/01/14 10:29:50;;;;;;;22.10;13.52;;;4.10;99.90;;;;;;5085718;28;20431;-35
2024/01/14 10:32:17;;;;;;;24.73;14.32;;;4.10;99.90;;;;;;5108243;28;20399;-35
2024/01/14 10:34:43;;;;;;;28.13;15.65;;;4.10;99.90;;;;;;5095131;28;20028;-35
2024/01/14 10:37:09;;;;;;;29.85;16.33;;;4.00;99.90;;;;;;5108807;28;20356;-35
2024/01/14 10:39:35;;;;;;;31.38;15.88;;;4.00;99.90;;;;;;5092664;28;20043;-35
2024/01/14 10:42:01;;;;;;;28.33;15.20;;;4.00;99.90;;;;;;5109313;28;20032;-35
2024/01/14 10:44:28;;;;;;;27.52;15.13;;;4.00;99.90;;;;;;5100662;28;20036;-36
2024/01/14 10:46:54;;;;;;;27.15;15.88;;;4.00;99.90;;;;;;5101959;28;20064;-35
2024/01/14 10:49:26;;;;;;;29.40;16.02;;;4.00;99.90;;;;;;5106102;28;20503;-38
2024/01/14 10:52:08;;;;;;;33.35;17.75;;;4.00;99.90;;;;;;5095388;28;20072;-35
2024/01/14 10:54:39;;;;;;;32.83;17.10;;;4.10;99.90;;;;;;5110398;28;20047;-35
2024/01/14 10:57:15;;;;;;;33.75;16.83;;;4.10;99.90;;;;;;5103136;28;20594;-35
2024/01/14 10:59:43;;;;;;;30.40;17.33;;;4.20;99.90;;;;;;5106127;28;20143;-35
2024/01/14 11:02:19;;;;;;;32.78;16.50;;;4.20;99.90;;;;;;5102210;28;20047;-35
2024/01/14 11:04:44;;;;;;;31.40;16.98;;;4.30;99.90;;;;;;5107555;28;20046;-35
2024/01/14 11:07:12;;;;;;;32.42;16.95;;;4.30;99.90;;;;;;5109548;28;20025;-35
2024/01/14 11:09:40;;;;;;;30.33;17.38;;;4.30;99.90;;;;;;5111575;28;20031;-35
2024/01/14 11:12:17;;;;;;;32.28;16.45;;;4.40;99.90;;;;;;5086909;28;20039;-35
2024/01/14 11:14:54;;;;;;;27.38;16.05;;;4.40;99.90;;;;;;5102817;28;20035;-35
2024/01/14 11:17:45;;;;;;;34.38;17.60;;;4.40;99.90;;;;;;5103597;28;20036;-35
2024/01/14 11:20:16;;;;;;;25.48;14.88;;;4.50;99.90;;;;;;5112701;28;20048;-34
2024/01/14 11:22:42;;;;;;;27.10;13.55;;;4.60;99.90;;;;;;5100320;28;20416;-35
2024/01/14 11:25:16;;;;;;;24.73;13.93;;;4.60;99.90;;;;;;5112079;28;20080;-34
2024/01/14 11:27:41;;;;;;;26.75;12.60;;;4.70;99.90;;;;;;5107080;28;20046;-34
2024/01/14 11:30:10;;;;;;;20.80;12.43;;;4.70;99.90;;;;;;5098115;28;20056;-36
2024/01/14 11:32:35;;;;;;;23.17;13.32;;;4.70;99.90;;;;;;5105390;28;20373;-35
2024/01/14 11:35:02;;;;;;;25.00;12.48;;;4.80;99.90;;;;;;5073580;28;20040;-35
2024/01/14 11:37:37;;;;;;;24.88;12.40;;;4.70;99.90;;;;;;5092242;28;20044;-35
2024/01/14 11:40:13;;;;;;;23.02;11.27;;;4.60;99.90;;;;;;5098462;28;20060;-34
2024/01/14 11:42:49;;;;;;;20.25;10.60;;;4.60;99.90;;;;;;5102295;28;20115;-34
2024/01/14 11:45:24;;;;;;;20.05;10.82;;;4.60;99.90;;;;;;5103596;28;20120;-34
2024/01/14 11:47:55;;;;;;;22.70;11.95;;;4.60;99.90;;;;;;5095406;28;20031;-35
2024/01/14 11:50:24;;;;;;;20.63;11.70;;;4.60;99.90;;;;;;5105847;28;20040;-35
2024/01/14 11:52:54;;;;;;;19.40;11.93;;;4.70;99.90;;;;;;5087947;28;20403;-34
2024/01/14 11:55:31;;;;;;;24.45;15.00;;;4.70;99.90;;;;;;5088550;28;20038;-35
2024/01/14 11:58:17;;;;;;;22.85;13.73;;;4.70;99.90;;;;;;5107459;28;20569;-36
2024/01/14 12:00:44;;;;;;;23.70;13.63;;;4.70;99.90;;;;;;5103522;28;20031;-35
2024/01/14 12:03:14;;;;;;;25.05;13.32;;;4.80;99.90;;;;;;5097872;28;20110;-35
2024/01/14 12:05:40;;;;;;;29.30;15.15;;;4.70;99.90;;;;;;5083530;28;20070;-35
2024/01/14 12:08:07;;;;;;;22.88;14.38;;;4.80;99.90;;;;;;5101349;28;20044;-34
2024/01/14 12:10:33;;;;;;;21.08;12.60;;;4.70;99.90;;;;;;5093617;28;20027;-35
2024/01/14 12:13:03;;;;;;;23.98;13.57;;;4.60;99.90;;;;;;5099983;28;20517;-34
2024/01/14 12:15:29;;;;;;;24.10;13.93;;;4.60;99.90;;;;;;5094825;28;20032;-35
2024/01/14 12:17:57;;;;;;;25.42;14.43;;;4.60;99.90;;;;;;5082276;28;20043;-34
2024/01/14 12:20:24;;;;;;;29.08;15.73;;;4.60;99.90;;;;;;5099029;28;20092;-35
2024/01/14 12:22:56;;;;;;;24.80;15.18;;;4.50;99.90;;;;;;5077669;28;20135;-35
2024/01/14 12:25:22;;;;;;;27.13;15.35;;;4.50;99.90;;;;;;5085792;28;20079;-35
2024/01/14 12:27:48;;;;;;;28.27;16.27;;;4.40;99.90;;;;;;5099999;28;20134;-35
2024/01/14 12:30:23;;;;;;;30.80;17.75;;;4.40;99.90;;;;;;5092321;28;20122;-34
2024/01/14 12:32:49;;;;;;;29.90;16.35;;;4.40;99.90;;;;;;5069981;28;20127;-34
2024/01/14 12:35:15;;;;;;;30.67;16.45;;;4.40;99.90;;;;;;5092939;28;20124;-35
2024/01/14 12:37:41;;;;;;;30.65;17.08;;;4.40;99.90;;;;;;5103604;28;20027;-34
2024/01/14 12:40:07;;;;;;;32.35;17.13;;;4.30;99.90;;;;;;5089204;28;20942;-36
2024/01/14 12:42:33;;;;;;;33.47;18.60;;;4.30;99.90;;;;;;5107631;28;20039;-35
2024/01/14 12:45:03;;;;;;;31.92;18.13;;;4.30;99.90;;;;;;5091764;28;20044;-35
2024/01/14 12:47:29;;;;;;;33.85;17.92;;;4.40;99.90;;;;;;5097345;28;20062;-36